createdAt,value
2019-03-06T00:00:09.458Z,993.5
2019-03-06T00:01:10.122Z,993.5
2019-03-06T00:02:10.830Z,993.5
2019-03-06T00:03:11.775Z,993.5
2019-03-06T00:04:12.817Z,993.5
2019-03-06T00:05:13.648Z,993.5
2019-03-06T00:06:16.947Z,993.5
2019-03-06T00:07:15.088Z,993.5
2019-03-06T00:08:15.789Z,993.5
2019-03-06T00:09:16.493Z,993.5
2019-03-06T00:10:17.188Z,993.5
2019-03-06T00:11:17.900Z,993.5
2019-03-06T00:12:18.625Z,993.5
2019-03-06T00:13:19.341Z,993.5
2019-03-06T00:14:20.137Z,993.4
2019-03-06T00:15:21.795Z,993.5
2019-03-06T00:16:22.582Z,993.4
2019-03-06T00:17:23.280Z,993.4
2019-03-06T00:18:24.031Z,993.4
2019-03-06T00:19:24.741Z,993.4
2019-03-06T00:20:25.445Z,993.4
2019-03-06T00:21:26.207Z,993.4
2019-03-06T00:22:26.915Z,993.4
2019-03-06T00:23:27.639Z,993.4
2019-03-06T00:24:28.347Z,993.3
2019-03-06T00:25:29.057Z,993.3
2019-03-06T00:26:29.772Z,993.3
2019-03-06T00:27:30.479Z,993.3
2019-03-06T00:28:31.173Z,993.3
2019-03-06T00:29:32.128Z,993.3
2019-03-06T00:30:32.831Z,993.3
2019-03-06T00:31:33.550Z,993.3
2019-03-06T00:32:34.251Z,993.3
2019-03-06T00:33:34.969Z,993.2
2019-03-06T00:34:35.663Z,993.3
2019-03-06T00:35:36.386Z,993.3
2019-03-06T00:36:37.082Z,993.3
2019-03-06T00:37:37.779Z,993.3
2019-03-06T00:38:38.477Z,993.3
2019-03-06T00:39:39.179Z,993.3
2019-03-06T00:40:39.875Z,993.3
2019-03-06T00:41:40.585Z,993.3
2019-03-06T00:42:41.335Z,993.2
2019-03-06T00:43:42.027Z,993.2
2019-03-06T00:44:42.719Z,993.2
2019-03-06T00:45:43.435Z,993.2
2019-03-06T00:46:44.164Z,993.2
2019-03-06T00:47:44.877Z,993.2
2019-03-06T00:48:45.591Z,993.1
2019-03-06T00:49:46.296Z,993.1
2019-03-06T00:50:47.001Z,993.1
2019-03-06T00:51:47.700Z,993.2
2019-03-06T00:52:48.670Z,993.1
2019-03-06T00:53:49.372Z,993.1
2019-03-06T00:54:50.072Z,993.2
2019-03-06T00:55:50.783Z,993.2
2019-03-06T00:56:51.484Z,993.1
2019-03-06T00:57:52.234Z,993.1
2019-03-06T00:58:52.955Z,993.1
2019-03-06T00:59:53.659Z,993.1
2019-03-06T01:00:54.365Z,993.1
2019-03-06T01:01:55.329Z,993.1
2019-03-06T01:02:56.047Z,993.1
2019-03-06T01:03:56.741Z,993.1
2019-03-06T01:04:57.464Z,993.1
2019-03-06T01:05:58.157Z,993.1
2019-03-06T01:06:58.863Z,993.1
2019-03-06T01:07:59.574Z,993.1
2019-03-06T01:09:00.271Z,993.1
2019-03-06T01:10:00.975Z,993.2
2019-03-06T01:11:01.684Z,993.1
2019-03-06T01:12:02.400Z,993.2
2019-03-06T01:13:03.114Z,993.1
2019-03-06T01:14:03.811Z,993.1
2019-03-06T01:15:04.510Z,993.1
2019-03-06T01:16:05.206Z,993.1
2019-03-06T01:17:05.925Z,993.1
2019-03-06T01:18:06.632Z,993.1
2019-03-06T01:19:07.333Z,993.1
2019-03-06T01:20:08.040Z,993.1
2019-03-06T01:21:08.751Z,993.1
2019-03-06T01:22:09.453Z,993.1
2019-03-06T01:23:10.157Z,993.1
2019-03-06T01:24:10.866Z,993.1
2019-03-06T01:25:11.561Z,993.1
2019-03-06T01:26:12.269Z,993.1
2019-03-06T01:27:12.970Z,993.1
2019-03-06T01:28:13.682Z,993.1
2019-03-06T01:29:14.379Z,993.1
2019-03-06T01:30:15.069Z,993.2
2019-03-06T01:31:15.781Z,993.1
2019-03-06T01:32:16.541Z,993.1
2019-03-06T01:33:17.244Z,993.2
2019-03-06T01:34:18.197Z,993.1
2019-03-06T01:35:18.902Z,993.0
2019-03-06T01:36:19.597Z,993.1
2019-03-06T01:37:20.318Z,993.0
2019-03-06T01:38:21.022Z,993.0
2019-03-06T01:39:21.727Z,992.9
2019-03-06T01:40:22.431Z,992.9
2019-03-06T01:41:23.136Z,992.9
2019-03-06T01:42:24.091Z,992.9
2019-03-06T01:43:24.801Z,992.9
2019-03-06T01:44:25.529Z,992.9
2019-03-06T01:45:26.233Z,992.9
2019-03-06T01:46:27.186Z,992.9
2019-03-06T01:47:27.896Z,992.8
2019-03-06T01:48:28.587Z,992.9
2019-03-06T01:49:29.348Z,992.8
2019-03-06T01:50:30.057Z,992.9
2019-03-06T01:51:30.762Z,992.9
2019-03-06T01:52:31.460Z,992.8
2019-03-06T01:53:32.179Z,992.8
2019-03-06T01:54:32.949Z,992.9
2019-03-06T01:55:33.659Z,992.9
2019-03-06T01:56:34.366Z,992.9
2019-03-06T01:57:35.059Z,992.8
2019-03-06T01:58:35.775Z,992.8
2019-03-06T01:59:36.534Z,992.8
2019-03-06T02:00:37.235Z,992.8
2019-03-06T02:01:37.935Z,992.8
2019-03-06T02:02:38.648Z,992.8
2019-03-06T02:03:39.373Z,992.8
2019-03-06T02:04:40.171Z,992.8
2019-03-06T02:05:40.878Z,992.8
2019-03-06T02:06:41.585Z,992.8
2019-03-06T02:07:42.296Z,992.8
2019-03-06T02:08:42.995Z,992.8
2019-03-06T02:09:43.699Z,992.8
2019-03-06T02:10:44.410Z,992.8
2019-03-06T02:11:45.128Z,992.8
2019-03-06T02:12:45.834Z,992.8
2019-03-06T02:13:46.550Z,992.8
2019-03-06T02:14:47.242Z,992.8
2019-03-06T02:15:48.180Z,992.7
2019-03-06T02:16:48.974Z,992.8
2019-03-06T02:17:49.667Z,992.8
2019-03-06T02:18:50.379Z,992.8
2019-03-06T02:19:51.081Z,992.8
2019-03-06T02:20:51.910Z,992.8
2019-03-06T02:21:52.652Z,992.8
2019-03-06T02:22:53.361Z,992.8
2019-03-06T02:23:54.054Z,992.8
2019-03-06T02:24:54.768Z,992.7
2019-03-06T02:25:55.474Z,992.7
2019-03-06T02:26:56.280Z,992.6
2019-03-06T02:27:57.001Z,992.6
2019-03-06T02:28:57.699Z,992.6
2019-03-06T02:29:58.402Z,992.6
2019-03-06T02:30:59.115Z,992.6
2019-03-06T02:31:59.876Z,992.5
2019-03-06T02:33:00.606Z,992.6
2019-03-06T02:34:01.333Z,992.5
2019-03-06T02:35:02.063Z,992.5
2019-03-06T02:36:02.700Z,992.5
2019-03-06T02:37:03.415Z,992.5
2019-03-06T02:38:04.115Z,992.5
2019-03-06T02:39:04.817Z,992.5
2019-03-06T02:40:05.511Z,992.4
2019-03-06T02:41:06.217Z,992.4
2019-03-06T02:42:06.927Z,992.3
2019-03-06T02:43:07.626Z,992.3
2019-03-06T02:44:08.342Z,992.3
2019-03-06T02:45:09.121Z,992.3
2019-03-06T02:46:09.761Z,992.3
2019-03-06T02:47:10.476Z,992.3
2019-03-06T02:48:11.215Z,992.3
2019-03-06T02:49:11.910Z,992.3
2019-03-06T02:50:12.594Z,992.2
2019-03-06T02:51:13.307Z,992.2
2019-03-06T02:52:14.019Z,992.2
2019-03-06T02:53:14.722Z,992.1
2019-03-06T02:54:15.444Z,992.2
2019-03-06T02:55:16.168Z,992.2
2019-03-06T02:56:16.861Z,992.1
2019-03-06T02:57:17.574Z,992.1
2019-03-06T02:58:18.272Z,992.1
2019-03-06T02:59:18.993Z,992.1
2019-03-06T03:00:19.705Z,992.1
2019-03-06T03:01:20.414Z,992.0
2019-03-06T03:02:21.130Z,992.0
2019-03-06T03:03:21.862Z,992.0
2019-03-06T03:04:22.559Z,991.9
2019-03-06T03:05:23.267Z,991.9
2019-03-06T03:06:23.984Z,992.0
2019-03-06T03:07:24.677Z,991.9
2019-03-06T03:08:25.390Z,991.9
2019-03-06T03:09:26.092Z,991.9
2019-03-06T03:10:26.796Z,991.9
2019-03-06T03:11:27.505Z,991.9
2019-03-06T03:12:28.212Z,991.9
2019-03-06T03:13:29.167Z,991.9
2019-03-06T03:14:29.877Z,991.8
2019-03-06T03:15:30.593Z,991.9
2019-03-06T03:16:31.281Z,991.9
2019-03-06T03:17:32.006Z,991.9
2019-03-06T03:18:32.728Z,991.8
2019-03-06T03:19:33.434Z,991.8
2019-03-06T03:20:34.137Z,991.9
2019-03-06T03:21:34.842Z,991.8
2019-03-06T03:22:35.552Z,991.8
2019-03-06T03:23:36.260Z,991.8
2019-03-06T03:24:36.974Z,991.8
2019-03-06T03:25:37.667Z,991.8
2019-03-06T03:26:38.380Z,991.7
2019-03-06T03:27:39.091Z,991.7
2019-03-06T03:28:39.803Z,991.7
2019-03-06T03:29:40.531Z,991.6
2019-03-06T03:30:41.224Z,991.7
2019-03-06T03:31:41.938Z,991.6
2019-03-06T03:32:42.741Z,991.7
2019-03-06T03:33:43.463Z,991.6
2019-03-06T03:34:44.157Z,991.7
2019-03-06T03:35:44.876Z,991.7
2019-03-06T03:36:45.581Z,991.7
2019-03-06T03:37:46.390Z,991.7
2019-03-06T03:38:47.095Z,991.7
2019-03-06T03:39:47.795Z,991.7
2019-03-06T03:40:48.586Z,991.6
2019-03-06T03:41:49.227Z,991.7
2019-03-06T03:42:50.175Z,991.6
2019-03-06T03:43:50.981Z,991.6
2019-03-06T03:44:51.678Z,991.7
2019-03-06T03:45:52.772Z,991.7
2019-03-06T03:46:53.511Z,991.7
2019-03-06T03:47:54.247Z,991.7
2019-03-06T03:48:54.949Z,991.7
2019-03-06T03:49:55.653Z,991.7
2019-03-06T03:50:56.364Z,991.7
2019-03-06T03:51:57.065Z,991.7
2019-03-06T03:52:57.776Z,991.7
2019-03-06T03:53:58.495Z,991.6
2019-03-06T03:54:59.206Z,991.6
2019-03-06T03:55:59.950Z,991.6
2019-03-06T03:57:01.864Z,991.5
2019-03-06T03:58:02.625Z,991.4
2019-03-06T03:59:04.279Z,991.5
2019-03-06T04:00:06.530Z,991.4
2019-03-06T04:01:07.344Z,991.5
2019-03-06T04:02:08.079Z,991.4
2019-03-06T04:03:08.785Z,991.4
2019-03-06T04:04:09.495Z,991.4
2019-03-06T04:05:10.212Z,991.4
2019-03-06T04:06:10.912Z,991.4
2019-03-06T04:07:11.629Z,991.4
2019-03-06T04:08:12.318Z,991.4
2019-03-06T04:09:13.018Z,991.4
2019-03-06T04:10:13.751Z,991.4
2019-03-06T04:11:14.815Z,991.4
2019-03-06T04:12:15.538Z,991.4
2019-03-06T04:13:16.252Z,991.4
2019-03-06T04:14:17.214Z,991.4
2019-03-06T04:15:17.917Z,991.3
2019-03-06T04:16:18.610Z,991.3
2019-03-06T04:17:19.324Z,991.3
2019-03-06T04:18:20.038Z,991.3
2019-03-06T04:19:20.732Z,991.2
2019-03-06T04:20:21.455Z,991.2
2019-03-06T04:21:22.166Z,991.2
2019-03-06T04:22:22.891Z,991.2
2019-03-06T04:23:23.557Z,991.2
2019-03-06T04:24:24.273Z,991.2
2019-03-06T04:25:24.981Z,991.1
2019-03-06T04:26:25.679Z,991.1
2019-03-06T04:27:26.642Z,991.1
2019-03-06T04:28:28.096Z,991.1
2019-03-06T04:29:28.050Z,991.0
2019-03-06T04:30:28.743Z,991.1
2019-03-06T04:31:29.460Z,991.1
2019-03-06T04:32:30.174Z,991.1
2019-03-06T04:33:30.876Z,991.1
2019-03-06T04:34:31.591Z,991.1
2019-03-06T04:35:32.280Z,991.0
2019-03-06T04:36:33.005Z,991.1
2019-03-06T04:37:33.717Z,991.1
2019-03-06T04:38:34.427Z,991.1
2019-03-06T04:39:35.134Z,991.1
2019-03-06T04:40:35.828Z,991.1
2019-03-06T04:41:36.521Z,991.1
2019-03-06T04:42:37.231Z,991.1
2019-03-06T04:43:37.935Z,991.1
2019-03-06T04:44:38.640Z,991.1
2019-03-06T04:45:39.337Z,991.1
2019-03-06T04:46:40.046Z,991.1
2019-03-06T04:47:40.753Z,991.1
2019-03-06T04:48:41.447Z,991.1
2019-03-06T04:49:42.140Z,991.1
2019-03-06T04:50:43.082Z,991.1
2019-03-06T04:51:43.828Z,991.1
2019-03-06T04:52:44.548Z,991.1
2019-03-06T04:53:45.253Z,991.0
2019-03-06T04:54:45.950Z,991.0
2019-03-06T04:55:46.662Z,991.0
2019-03-06T04:56:47.373Z,991.0
2019-03-06T04:57:48.089Z,991.0
2019-03-06T04:58:48.777Z,991.0
2019-03-06T04:59:49.740Z,991.0
2019-03-06T05:00:50.426Z,991.0
2019-03-06T05:01:51.305Z,991.0
2019-03-06T05:02:52.003Z,991.0
2019-03-06T05:03:52.727Z,991.1
2019-03-06T05:04:53.416Z,991.1
2019-03-06T05:05:54.114Z,991.0
2019-03-06T05:06:54.816Z,991.2
2019-03-06T05:07:55.521Z,991.1
2019-03-06T05:08:56.227Z,991.0
2019-03-06T05:09:56.942Z,991.1
2019-03-06T05:10:57.645Z,991.1
2019-03-06T05:11:58.355Z,991.1
2019-03-06T05:12:59.059Z,991.1
2019-03-06T05:13:59.764Z,991.0
2019-03-06T05:15:00.468Z,991.0
2019-03-06T05:16:01.326Z,991.0
2019-03-06T05:17:02.029Z,991.0
2019-03-06T05:18:02.736Z,991.0
2019-03-06T05:19:03.446Z,991.0
2019-03-06T05:20:04.155Z,990.9
2019-03-06T05:21:04.864Z,991.0
2019-03-06T05:22:05.567Z,990.9
2019-03-06T05:23:06.420Z,990.9
2019-03-06T05:24:07.129Z,990.9
2019-03-06T05:25:07.828Z,990.8
2019-03-06T05:26:08.537Z,990.8
2019-03-06T05:27:09.237Z,990.8
2019-03-06T05:28:09.996Z,990.7
2019-03-06T05:29:10.696Z,990.7
2019-03-06T05:30:11.405Z,990.6
2019-03-06T05:31:12.111Z,990.6
2019-03-06T05:32:12.820Z,990.6
2019-03-06T05:33:13.588Z,990.6
2019-03-06T05:34:14.297Z,990.6
2019-03-06T05:35:15.010Z,990.5
2019-03-06T05:36:15.712Z,990.6
2019-03-06T05:37:16.428Z,990.6
2019-03-06T05:38:17.135Z,990.5
2019-03-06T05:39:17.838Z,990.5
2019-03-06T05:40:18.545Z,990.5
2019-03-06T05:41:19.236Z,990.5
2019-03-06T05:42:19.940Z,990.4
2019-03-06T05:43:20.650Z,990.5
2019-03-06T05:44:21.350Z,990.4
2019-03-06T05:45:22.056Z,990.4
2019-03-06T05:46:22.756Z,990.4
2019-03-06T05:47:23.463Z,990.4
2019-03-06T05:48:24.190Z,990.3
2019-03-06T05:49:24.924Z,990.3
2019-03-06T05:50:25.690Z,990.3
2019-03-06T05:51:26.393Z,990.4
2019-03-06T05:52:27.092Z,990.3
2019-03-06T05:53:27.801Z,990.3
2019-03-06T05:54:28.513Z,990.3
2019-03-06T05:55:29.225Z,990.3
2019-03-06T05:56:29.947Z,990.3
2019-03-06T05:57:30.704Z,990.3
2019-03-06T05:58:31.419Z,990.3
2019-03-06T05:59:32.121Z,990.3
2019-03-06T06:00:33.073Z,990.2
2019-03-06T06:01:33.796Z,990.3
2019-03-06T06:02:34.561Z,990.3
2019-03-06T06:03:35.254Z,990.2
2019-03-06T06:04:35.981Z,990.2
2019-03-06T06:05:36.679Z,990.3
2019-03-06T06:06:37.393Z,990.2
2019-03-06T06:07:38.116Z,990.3
2019-03-06T06:08:38.820Z,990.3
2019-03-06T06:09:39.545Z,990.2
2019-03-06T06:10:40.264Z,990.2
2019-03-06T06:11:40.990Z,990.2
2019-03-06T06:12:41.693Z,990.3
2019-03-06T06:13:42.410Z,990.2
2019-03-06T06:14:43.131Z,990.2
2019-03-06T06:15:44.114Z,990.2
2019-03-06T06:16:44.877Z,990.2
2019-03-06T06:17:45.588Z,990.2
2019-03-06T06:18:46.285Z,990.2
2019-03-06T06:19:47.000Z,990.1
2019-03-06T06:20:47.708Z,990.1
2019-03-06T06:21:48.586Z,990.1
2019-03-06T06:22:49.289Z,990.0
2019-03-06T06:23:50.012Z,990.0
2019-03-06T06:24:50.735Z,990.0
2019-03-06T06:25:51.451Z,989.9
2019-03-06T06:26:52.165Z,989.9
2019-03-06T06:27:53.332Z,989.8
2019-03-06T06:28:54.075Z,989.9
2019-03-06T06:29:54.776Z,989.9
2019-03-06T06:30:55.496Z,989.9
2019-03-06T06:31:56.216Z,989.9
2019-03-06T06:32:56.923Z,989.9
2019-03-06T06:33:57.641Z,989.9
2019-03-06T06:34:58.362Z,989.9
2019-03-06T06:35:59.094Z,989.9
2019-03-06T06:36:59.799Z,989.9
2019-03-06T06:38:00.774Z,990.0
2019-03-06T06:39:01.473Z,989.9
2019-03-06T06:40:02.216Z,989.9
2019-03-06T06:41:02.930Z,989.9
2019-03-06T06:42:03.629Z,989.8
2019-03-06T06:43:04.337Z,989.9
2019-03-06T06:44:05.033Z,989.8
2019-03-06T06:45:05.741Z,989.8
2019-03-06T06:46:07.595Z,989.8
2019-03-06T06:47:07.175Z,989.8
2019-03-06T06:48:07.906Z,989.7
2019-03-06T06:49:08.608Z,989.8
2019-03-06T06:50:09.321Z,989.8
2019-03-06T06:51:10.047Z,989.8
2019-03-06T06:52:10.795Z,989.8
2019-03-06T06:53:11.640Z,989.7
2019-03-06T06:54:13.067Z,989.8
2019-03-06T06:55:13.810Z,989.7
2019-03-06T06:56:14.574Z,989.7
2019-03-06T06:57:15.345Z,989.7
2019-03-06T06:58:16.148Z,989.7
2019-03-06T06:59:17.382Z,989.7
2019-03-06T07:00:18.198Z,989.7
2019-03-06T07:01:19.026Z,989.7
2019-03-06T07:02:19.732Z,989.6
2019-03-06T07:03:22.331Z,989.7
2019-03-06T07:04:21.345Z,989.6
2019-03-06T07:05:22.095Z,989.6
2019-03-06T07:06:22.849Z,989.6
2019-03-06T07:07:23.689Z,989.6
2019-03-06T07:08:24.458Z,989.5
2019-03-06T07:09:25.188Z,989.6
2019-03-06T07:10:26.020Z,989.6
2019-03-06T07:11:26.743Z,989.5
2019-03-06T07:12:27.453Z,989.6
2019-03-06T07:13:28.163Z,989.6
2019-03-06T07:14:28.879Z,989.5
2019-03-06T07:15:29.658Z,989.6
2019-03-06T07:16:30.389Z,989.6
2019-03-06T07:17:31.105Z,989.5
2019-03-06T07:18:31.819Z,989.5
2019-03-06T07:19:32.539Z,989.5
2019-03-06T07:20:33.261Z,989.5
2019-03-06T07:21:33.980Z,989.4
2019-03-06T07:22:34.698Z,989.5
2019-03-06T07:23:35.400Z,989.4
2019-03-06T07:24:36.119Z,989.4
2019-03-06T07:25:36.822Z,989.4
2019-03-06T07:26:37.544Z,989.4
2019-03-06T07:27:38.259Z,989.3
2019-03-06T07:28:38.981Z,989.4
2019-03-06T07:29:39.696Z,989.4
2019-03-06T07:30:40.409Z,989.5
2019-03-06T07:31:41.120Z,989.5
2019-03-06T07:32:41.844Z,989.5
2019-03-06T07:33:42.578Z,989.4
2019-03-06T07:34:43.300Z,989.5
2019-03-06T07:35:44.031Z,989.4
2019-03-06T07:36:44.746Z,989.3
2019-03-06T07:37:45.454Z,989.4
2019-03-06T07:38:46.272Z,989.4
2019-03-06T07:39:46.987Z,989.3
2019-03-06T07:40:47.691Z,989.3
2019-03-06T07:41:48.404Z,989.3
2019-03-06T07:42:49.120Z,989.3
2019-03-06T07:43:49.837Z,989.3
2019-03-06T07:44:50.961Z,989.3
2019-03-06T07:45:51.935Z,989.3
2019-03-06T07:46:52.655Z,989.3
2019-03-06T07:47:53.379Z,989.3
2019-03-06T07:48:54.103Z,989.4
2019-03-06T07:49:54.818Z,989.4
2019-03-06T07:50:55.530Z,989.3
2019-03-06T07:51:56.230Z,989.4
2019-03-06T07:52:56.948Z,989.3
2019-03-06T07:53:57.664Z,989.3
2019-03-06T07:54:58.379Z,989.2
2019-03-06T07:55:59.107Z,989.2
2019-03-06T07:56:59.829Z,989.2
2019-03-06T07:58:00.545Z,989.2
2019-03-06T07:59:01.247Z,989.2
2019-03-06T08:00:02.330Z,989.2
2019-03-06T08:01:03.052Z,989.1
2019-03-06T08:02:03.769Z,989.1
2019-03-06T08:03:04.488Z,989.2
2019-03-06T08:04:05.212Z,989.2
2019-03-06T08:05:05.934Z,989.2
2019-03-06T08:06:06.668Z,989.2
2019-03-06T08:07:07.362Z,989.1
2019-03-06T08:08:08.084Z,989.2
2019-03-06T08:09:08.785Z,989.2
2019-03-06T08:10:09.503Z,989.1
2019-03-06T08:11:10.227Z,989.1
2019-03-06T08:12:10.958Z,989.1
2019-03-06T08:13:11.664Z,989.1
2019-03-06T08:14:12.393Z,989.1
2019-03-06T08:15:13.115Z,989.1
2019-03-06T08:16:13.835Z,989.1
2019-03-06T08:17:14.546Z,989.0
2019-03-06T08:18:15.262Z,989.0
2019-03-06T08:19:15.968Z,989.0
2019-03-06T08:20:16.685Z,989.0
2019-03-06T08:21:17.394Z,988.9
2019-03-06T08:22:18.117Z,988.9
2019-03-06T08:23:18.832Z,988.9
2019-03-06T08:24:19.539Z,988.9
2019-03-06T08:25:20.253Z,988.9
2019-03-06T08:26:21.013Z,988.9
2019-03-06T08:27:21.741Z,988.9
2019-03-06T08:28:22.487Z,988.9
2019-03-06T08:29:23.198Z,988.8
2019-03-06T08:30:24.076Z,988.9
2019-03-06T08:31:24.830Z,988.8
2019-03-06T08:32:25.953Z,988.8
2019-03-06T08:33:26.662Z,988.8
2019-03-06T08:34:27.397Z,988.8
2019-03-06T08:35:28.097Z,988.8
2019-03-06T08:36:28.812Z,988.8
2019-03-06T08:37:29.522Z,988.8
2019-03-06T08:38:30.242Z,988.7
2019-03-06T08:39:30.958Z,988.8
2019-03-06T08:40:31.675Z,988.8
2019-03-06T08:41:32.665Z,988.7
2019-03-06T08:42:33.371Z,988.7
2019-03-06T08:43:34.093Z,988.7
2019-03-06T08:44:34.853Z,988.7
2019-03-06T08:45:35.571Z,988.6
2019-03-06T08:46:36.283Z,988.7
2019-03-06T08:47:37.246Z,988.6
2019-03-06T08:48:37.986Z,988.6
2019-03-06T08:49:38.745Z,988.6
2019-03-06T08:50:39.482Z,988.5
2019-03-06T08:51:40.194Z,988.5
2019-03-06T08:52:40.925Z,988.6
2019-03-06T08:53:41.625Z,988.5
2019-03-06T08:54:42.336Z,988.5
2019-03-06T08:55:43.060Z,988.6
2019-03-06T08:56:43.774Z,988.5
2019-03-06T08:57:44.512Z,988.5
2019-03-06T08:58:45.227Z,988.6
2019-03-06T08:59:46.185Z,988.6
2019-03-06T09:00:46.924Z,988.5
2019-03-06T09:01:47.651Z,988.6
2019-03-06T09:02:48.398Z,988.6
2019-03-06T09:03:49.155Z,988.6
2019-03-06T09:04:49.843Z,988.6
2019-03-06T09:05:50.566Z,988.6
2019-03-06T09:06:51.289Z,988.5
2019-03-06T09:07:52.015Z,988.6
2019-03-06T09:08:52.732Z,988.5
2019-03-06T09:09:53.702Z,988.6
2019-03-06T09:11:02.516Z,988.4
2019-03-06T09:11:55.146Z,988.5
2019-03-06T09:12:55.870Z,988.4
2019-03-06T09:13:56.592Z,988.4
2019-03-06T09:14:57.307Z,988.4
2019-03-06T09:15:58.033Z,988.4
2019-03-06T09:16:58.756Z,988.4
2019-03-06T09:18:08.645Z,988.4
2019-03-06T09:19:00.283Z,988.4
2019-03-06T09:20:01.016Z,988.3
2019-03-06T09:21:01.721Z,988.3
2019-03-06T09:22:02.456Z,988.3
2019-03-06T09:23:03.177Z,988.3
2019-03-06T09:24:03.897Z,988.2
2019-03-06T09:25:04.603Z,988.2
2019-03-06T09:26:05.311Z,988.1
2019-03-06T09:27:06.035Z,988.1
2019-03-06T09:28:07.359Z,988.1
2019-03-06T09:29:08.299Z,988.2
2019-03-06T09:30:15.787Z,988.1
2019-03-06T09:31:10.049Z,988.1
2019-03-06T09:32:11.055Z,988.1
2019-03-06T09:33:11.802Z,988.0
2019-03-06T09:34:12.522Z,988.0
2019-03-06T09:35:13.489Z,988.0
2019-03-06T09:36:14.193Z,988.0
2019-03-06T09:37:14.915Z,988.0
2019-03-06T09:38:15.645Z,987.9
2019-03-06T09:39:16.707Z,987.9
2019-03-06T09:40:17.580Z,987.8
2019-03-06T09:41:18.693Z,987.8
2019-03-06T09:42:19.573Z,987.9
2019-03-06T09:43:20.315Z,987.8
2019-03-06T09:44:21.302Z,987.8
2019-03-06T09:45:22.028Z,987.8
2019-03-06T09:46:22.737Z,987.7
2019-03-06T09:47:23.469Z,987.7
2019-03-06T09:49:25.840Z,987.8
2019-03-06T09:50:26.827Z,987.6
2019-03-06T09:51:27.534Z,987.6
2019-03-06T09:52:28.252Z,987.7
2019-03-06T09:53:28.984Z,987.6
2019-03-06T09:54:29.683Z,987.6
2019-03-06T09:55:30.643Z,987.6
2019-03-06T09:56:31.644Z,987.6
2019-03-06T09:57:33.030Z,987.7
2019-03-06T09:58:33.921Z,987.5
2019-03-06T09:59:34.630Z,987.5
2019-03-06T10:00:35.357Z,987.5
2019-03-06T10:01:36.066Z,987.5
2019-03-06T10:02:36.767Z,987.4
2019-03-06T10:03:37.490Z,987.4
2019-03-06T10:04:38.211Z,987.4
2019-03-06T10:05:38.925Z,987.5
2019-03-06T10:06:39.651Z,987.4
2019-03-06T10:07:40.390Z,987.5
2019-03-06T10:08:41.438Z,987.5
2019-03-06T10:09:42.151Z,987.3
2019-03-06T10:10:46.358Z,987.4
2019-03-06T10:11:43.593Z,987.3
2019-03-06T10:12:47.520Z,987.4
2019-03-06T10:13:45.293Z,987.3
2019-03-06T10:14:46.057Z,987.4
2019-03-06T10:15:46.802Z,987.2
2019-03-06T10:16:48.938Z,987.2
2019-03-06T10:17:48.627Z,987.2
2019-03-06T10:18:49.350Z,987.2
2019-03-06T10:19:50.087Z,987.2
2019-03-06T10:20:50.797Z,987.1
2019-03-06T10:21:51.523Z,987.2
2019-03-06T10:22:54.645Z,987.2
2019-03-06T10:23:53.026Z,987.3
2019-03-06T10:24:55.651Z,987.2
2019-03-06T10:25:54.462Z,987.2
2019-03-06T10:26:55.182Z,987.2
2019-03-06T10:28:05.749Z,987.1
2019-03-06T10:28:56.677Z,987.1
2019-03-06T10:29:57.394Z,987.1
2019-03-06T10:31:02.477Z,987.1
2019-03-06T10:31:58.823Z,987.1
2019-03-06T10:32:59.741Z,987.1
2019-03-06T10:34:00.466Z,987.1
2019-03-06T10:35:01.199Z,987.1
2019-03-06T10:36:01.907Z,987.1
2019-03-06T10:37:02.721Z,987.0
2019-03-06T10:38:03.355Z,987.1
2019-03-06T10:39:04.059Z,987.0
2019-03-06T10:40:04.772Z,987.0
2019-03-06T10:41:05.505Z,986.9
2019-03-06T10:42:06.208Z,987.0
2019-03-06T10:43:06.938Z,987.0
2019-03-06T10:44:07.659Z,987.0
2019-03-06T10:45:08.882Z,986.9
2019-03-06T10:46:09.596Z,986.9
2019-03-06T10:47:10.648Z,986.9
2019-03-06T10:48:11.374Z,987.0
2019-03-06T10:49:12.094Z,986.9
2019-03-06T10:50:12.810Z,986.9
2019-03-06T10:51:13.528Z,986.9
2019-03-06T10:52:14.241Z,987.0
2019-03-06T10:53:14.967Z,986.9
2019-03-06T10:54:15.671Z,986.8
2019-03-06T10:55:16.400Z,986.8
2019-03-06T10:56:17.115Z,986.8
2019-03-06T10:57:17.868Z,987.0
2019-03-06T10:58:18.598Z,986.8
2019-03-06T10:59:19.312Z,986.8
2019-03-06T11:00:20.022Z,986.8
2019-03-06T11:01:20.747Z,986.7
2019-03-06T11:02:21.469Z,986.7
2019-03-06T11:03:22.218Z,986.7
2019-03-06T11:04:22.938Z,986.7
2019-03-06T11:05:23.657Z,986.7
2019-03-06T11:06:24.373Z,986.7
2019-03-06T11:07:25.084Z,986.6
2019-03-06T11:08:25.793Z,986.6
2019-03-06T11:09:26.534Z,986.5
2019-03-06T11:10:27.233Z,986.6
2019-03-06T11:11:27.981Z,986.5
2019-03-06T11:12:28.780Z,986.6
2019-03-06T11:13:29.509Z,986.4
2019-03-06T11:14:30.232Z,986.5
2019-03-06T11:15:30.995Z,986.4
2019-03-06T11:16:31.707Z,986.4
2019-03-06T11:17:32.417Z,986.4
2019-03-06T11:18:33.142Z,986.2
2019-03-06T11:19:33.866Z,986.3
2019-03-06T11:20:34.589Z,986.3
2019-03-06T11:21:35.375Z,986.3
2019-03-06T11:22:36.100Z,986.2
2019-03-06T11:23:36.829Z,986.2
2019-03-06T11:24:37.551Z,986.2
2019-03-06T11:25:38.264Z,986.2
2019-03-06T11:26:39.008Z,986.2
2019-03-06T11:27:39.780Z,986.2
2019-03-06T11:28:40.516Z,986.1
2019-03-06T11:29:41.233Z,986.1
2019-03-06T11:30:41.952Z,986.5
2019-03-06T11:31:42.675Z,986.1
2019-03-06T11:32:43.861Z,986.0
2019-03-06T11:33:44.586Z,986.2
2019-03-06T11:34:45.299Z,986.0
2019-03-06T11:35:46.021Z,986.2
2019-03-06T11:36:46.767Z,986.1
2019-03-06T11:37:47.486Z,986.1
2019-03-06T11:38:48.213Z,986.2
2019-03-06T11:39:48.943Z,986.0
2019-03-06T11:40:49.659Z,986.1
2019-03-06T11:41:50.392Z,986.1
2019-03-06T11:42:51.090Z,986.0
2019-03-06T11:43:51.823Z,986.0
2019-03-06T11:44:52.816Z,986.0
2019-03-06T11:45:53.533Z,986.0
2019-03-06T11:46:54.255Z,986.0
2019-03-06T11:47:54.988Z,986.0
2019-03-06T11:48:55.869Z,986.0
2019-03-06T11:49:56.602Z,985.9
2019-03-06T11:50:57.340Z,985.8
2019-03-06T11:51:58.056Z,985.9
2019-03-06T11:52:58.773Z,985.7
2019-03-06T11:53:59.507Z,985.7
2019-03-06T11:55:06.204Z,985.8
2019-03-06T11:56:00.988Z,985.7
2019-03-06T11:57:01.705Z,985.7
2019-03-06T11:58:02.420Z,985.6
2019-03-06T11:59:03.135Z,985.6
2019-03-06T12:00:03.917Z,985.6
2019-03-06T12:01:04.625Z,985.6
2019-03-06T12:02:05.725Z,985.5
2019-03-06T12:03:06.437Z,985.5
2019-03-06T12:04:07.144Z,985.6
2019-03-06T12:05:07.874Z,985.5
2019-03-06T12:06:08.625Z,985.4
2019-03-06T12:07:09.337Z,985.4
2019-03-06T12:08:10.066Z,985.4
2019-03-06T12:09:10.800Z,985.3
2019-03-06T12:10:11.519Z,985.3
2019-03-06T12:11:12.250Z,985.4
2019-03-06T12:12:12.989Z,985.3
2019-03-06T12:13:13.702Z,985.3
2019-03-06T12:14:14.439Z,985.4
2019-03-06T12:15:15.161Z,985.3
2019-03-06T12:16:15.970Z,985.2
2019-03-06T12:17:16.695Z,985.2
2019-03-06T12:18:17.427Z,985.3
2019-03-06T12:19:18.158Z,985.2
2019-03-06T12:20:18.880Z,985.1
2019-03-06T12:21:19.773Z,985.2
2019-03-06T12:22:20.500Z,985.2
2019-03-06T12:23:21.223Z,985.2
2019-03-06T12:24:21.956Z,985.2
2019-03-06T12:25:22.689Z,985.2
2019-03-06T12:26:23.502Z,985.2
2019-03-06T12:27:24.226Z,985.1
2019-03-06T12:28:24.937Z,985.0
2019-03-06T12:29:27.769Z,985.1
2019-03-06T12:30:26.407Z,985.1
2019-03-06T12:31:27.139Z,985.1
2019-03-06T12:32:27.864Z,985.0
2019-03-06T12:33:28.598Z,985.1
2019-03-06T12:34:29.303Z,985.1
2019-03-06T12:35:30.029Z,985.0
2019-03-06T12:36:30.758Z,985.0
2019-03-06T12:37:31.472Z,985.0
2019-03-06T12:38:32.196Z,985.0
2019-03-06T12:39:32.978Z,985.0
2019-03-06T12:40:33.698Z,984.9
2019-03-06T12:41:34.443Z,984.9
2019-03-06T12:42:35.179Z,984.9
2019-03-06T12:43:35.903Z,984.9
2019-03-06T12:44:36.622Z,984.8
2019-03-06T12:45:37.356Z,984.9
2019-03-06T12:46:38.078Z,984.9
2019-03-06T12:47:38.790Z,984.8
2019-03-06T12:48:39.525Z,984.8
2019-03-06T12:49:40.356Z,984.7
2019-03-06T12:50:41.091Z,984.6
2019-03-06T12:51:41.810Z,984.7
2019-03-06T12:52:42.523Z,984.6
2019-03-06T12:53:43.249Z,984.6
2019-03-06T12:54:43.973Z,984.6
2019-03-06T12:55:44.695Z,984.5
2019-03-06T12:56:46.004Z,984.5
2019-03-06T12:57:46.718Z,984.5
2019-03-06T12:58:47.456Z,984.4
2019-03-06T12:59:48.266Z,984.5
2019-03-06T13:00:48.980Z,984.5
2019-03-06T13:01:49.703Z,984.5
2019-03-06T13:02:50.426Z,984.5